createdAt,value
2022-08-26T00:02:32.000Z,50.22838
2022-08-26T00:07:34.112Z,50.66215
2022-08-26T00:12:37.540Z,50.81995
2022-08-26T00:17:40.279Z,50.41428
2022-08-26T00:22:42.062Z,50.7129
2022-08-26T00:27:43.759Z,50.42318
2022-08-26T00:32:46.393Z,51.37074
2022-08-26T00:37:48.284Z,52.18138
2022-08-26T00:42:49.972Z,53.17287
2022-08-26T00:47:51.758Z,51.74543
2022-08-26T00:52:54.156Z,50.76224
2022-08-26T00:57:55.928Z,54.55278
2022-08-26T01:02:58.514Z,53.0878
2022-08-26T01:08:00.454Z,52.26188
2022-08-26T01:13:05.136Z,51.63542
2022-08-26T01:18:06.731Z,53.43034
2022-08-26T01:23:08.732Z,54.21962
2022-08-26T01:28:10.574Z,54.31842
2022-08-26T01:33:12.246Z,55.79921
2022-08-26T01:38:14.035Z,54.48419
2022-08-26T01:43:15.462Z,56.58458
2022-08-26T01:48:18.009Z,55.34632
2022-08-26T01:53:19.676Z,54.86566
2022-08-26T01:58:23.454Z,55.78453
2022-08-26T02:03:25.482Z,56.78552
2022-08-26T02:08:27.165Z,56.55403
2022-08-26T02:13:29.592Z,55.80306
2022-08-26T02:18:31.285Z,55.45112
2022-08-26T02:23:32.911Z,57.21796
2022-08-26T02:28:35.993Z,55.82223
2022-08-26T02:33:37.658Z,55.19831
2022-08-26T02:38:44.653Z,56.98191
2022-08-26T02:43:47.826Z,55.99048
2022-08-26T02:48:49.599Z,56.95067
2022-08-26T02:53:51.204Z,56.04447
2022-08-26T02:58:52.992Z,56.60474
2022-08-26T03:03:55.971Z,57.13814
2022-08-26T03:08:57.853Z,55.86528
2022-08-26T03:14:00.150Z,56.60518
2022-08-26T03:19:03.800Z,58.25938
2022-08-26T03:24:05.630Z,57.35333
2022-08-26T03:29:07.417Z,58.18849
2022-08-26T03:34:09.389Z,59.28127
2022-08-26T03:39:13.050Z,58.99528
2022-08-26T03:44:15.239Z,59.1984
2022-08-26T03:49:17.276Z,57.5159
2022-08-26T03:54:19.156Z,58.63993
2022-08-26T03:59:21.018Z,61.04078
2022-08-26T04:04:24.569Z,58.87556
2022-08-26T04:09:26.578Z,57.66992
2022-08-26T04:14:28.531Z,61.07297
2022-08-26T04:19:30.383Z,60.69211
2022-08-26T04:24:32.446Z,60.54533
2022-08-26T04:29:34.507Z,59.92122
2022-08-26T04:34:36.886Z,60.1289
2022-08-26T04:39:38.747Z,64.3906
2022-08-26T04:44:40.200Z,60.86516
2022-08-26T04:49:42.063Z,59.0086
2022-08-26T04:54:43.508Z,63.55183
2022-08-26T04:59:45.318Z,60.81042
2022-08-26T05:04:48.197Z,60.52843
2022-08-26T05:09:53.675Z,58.52585
2022-08-26T05:14:56.449Z,58.49401
2022-08-26T05:19:59.220Z,58.0027
2022-08-26T05:25:01.118Z,58.92107
2022-08-26T05:30:02.894Z,59.02743
2022-08-26T05:35:08.908Z,58.71599
2022-08-26T05:40:10.920Z,58.19255
2022-08-26T05:45:12.779Z,58.06938
2022-08-26T05:50:14.623Z,58.46512
2022-08-26T05:55:16.451Z,58.26084
2022-08-26T06:00:19.915Z,56.05959
2022-08-26T06:05:22.630Z,57.02513
2022-08-26T06:10:31.580Z,54.48459
2022-08-26T06:15:35.238Z,51.7392
2022-08-26T06:20:37.275Z,49.5694
2022-08-26T06:25:38.752Z,46.11383
2022-08-26T06:30:40.602Z,47.16401
2022-08-26T06:35:42.604Z,46.9959
2022-08-26T06:40:44.267Z,44.63944
2022-08-26T06:45:45.938Z,44.12592
2022-08-26T06:50:49.918Z,45.04559
2022-08-26T06:55:52.021Z,42.79995
2022-08-26T07:00:54.005Z,41.95981
2022-08-26T07:05:56.115Z,39.17763
2022-08-26T07:10:59.847Z,38.85699
2022-08-26T07:16:03.128Z,38.15466
2022-08-26T07:21:06.291Z,36.57706
2022-08-26T07:26:07.984Z,35.07226
2022-08-26T07:31:09.888Z,34.02985
2022-08-26T07:36:11.916Z,32.55462
2022-08-26T07:41:14.047Z,33.91105
2022-08-26T07:46:16.532Z,30.28091
2022-08-26T07:51:18.560Z,29.43684
2022-08-26T07:56:21.743Z,29.7691
2022-08-26T08:01:24.044Z,29.10304
2022-08-26T08:06:27.053Z,27.81843
2022-08-26T08:11:29.529Z,26.29291
2022-08-26T08:16:33.351Z,28.14383
2022-08-26T08:21:36.836Z,28.02526
2022-08-26T08:26:38.623Z,25.27171
2022-08-26T08:31:56.983Z,25.74435
2022-08-26T08:36:59.846Z,24.14036
2022-08-26T08:42:01.652Z,24.22573
2022-08-26T08:47:04.062Z,21.23352
2022-08-26T08:52:05.695Z,21.52437
2022-08-26T08:57:07.377Z,21.02852
2022-08-26T09:02:09.011Z,21.50413
2022-08-26T09:07:12.404Z,20.34334
2022-08-26T09:12:13.957Z,19.11413
2022-08-26T09:17:15.435Z,18.19966
2022-08-26T09:22:18.141Z,18.10517
2022-08-26T09:27:20.158Z,17.07856
2022-08-26T09:32:22.608Z,16.37004
2022-08-26T09:37:24.499Z,16.32411
2022-08-26T09:42:25.971Z,16.48155
2022-08-26T09:47:27.439Z,16.46446
2022-08-26T09:52:29.907Z,16.86578
2022-08-26T09:57:31.405Z,15.99075
2022-08-26T10:02:34.592Z,16.34842
2022-08-26T10:07:37.001Z,16.67675
2022-08-26T10:12:38.455Z,15.87807
2022-08-26T10:17:40.345Z,16.55135
2022-08-26T10:22:42.008Z,16.26609
2022-08-26T10:27:52.668Z,17.23201
2022-08-26T10:32:55.074Z,16.19275
2022-08-26T10:37:57.145Z,15.72716
2022-08-26T10:42:59.052Z,16.42498
2022-08-26T10:48:00.835Z,16.23292
2022-08-26T10:53:02.947Z,16.13473
2022-08-26T10:58:06.497Z,16.08178
2022-08-26T11:03:22.518Z,16.05107
2022-08-26T11:08:25.657Z,16.55459
2022-08-26T11:13:27.511Z,16.14426
2022-08-26T11:18:29.432Z,15.63448
2022-08-26T11:23:31.388Z,15.8369
2022-08-26T11:28:33.135Z,16.35867
2022-08-26T11:33:35.134Z,16.25895
2022-08-26T11:38:36.999Z,15.57494
2022-08-26T11:43:38.882Z,16.70284
2022-08-26T11:48:40.758Z,16.04637
2022-08-26T11:53:42.562Z,16.47491
2022-08-26T11:58:44.495Z,15.35799
2022-08-26T12:03:45.982Z,16.25642
2022-08-26T12:08:48.778Z,15.6242
2022-08-26T12:13:50.243Z,15.69443
2022-08-26T12:18:53.462Z,16.15245
2022-08-26T12:23:56.255Z,16.23029
2022-08-26T12:28:58.168Z,16.22367
2022-08-26T12:33:59.958Z,15.94275
2022-08-26T12:39:02.047Z,16.18605
2022-08-26T12:44:03.548Z,15.92491
2022-08-26T12:49:05.034Z,15.77056
2022-08-26T12:54:06.695Z,16.17346
2022-08-26T12:59:08.853Z,16.77427
2022-08-26T13:04:12.689Z,15.77842
2022-08-26T13:09:15.178Z,15.38231
2022-08-26T13:14:23.833Z,15.06498
2022-08-26T13:19:26.236Z,15.18385
2022-08-26T13:24:28.241Z,16.11905
2022-08-26T13:29:29.702Z,15.57944
2022-08-26T13:34:32.359Z,14.90574
2022-08-26T13:39:34.492Z,15.42684
2022-08-26T13:44:36.045Z,15.73951
2022-08-26T13:49:37.681Z,15.73901
2022-08-26T13:54:39.346Z,15.49523
2022-08-26T13:59:40.847Z,15.99646
2022-08-26T14:04:42.338Z,15.36618
2022-08-26T14:09:44.196Z,15.62131
2022-08-26T14:14:45.665Z,15.17528
2022-08-26T14:19:47.700Z,14.89845
2022-08-26T14:24:49.520Z,15.61109
2022-08-26T14:29:51.295Z,16.26525
2022-08-26T14:34:53.042Z,16.69284
2022-08-26T14:39:55.202Z,16.33091
2022-08-26T14:44:57.063Z,15.58329
2022-08-26T14:49:58.853Z,15.28576
2022-08-26T14:55:00.558Z,16.89871
2022-08-26T15:00:02.512Z,17.0925
2022-08-26T15:05:04.635Z,17.62971
2022-08-26T15:10:06.745Z,18.25542
2022-08-26T15:15:08.652Z,18.24216
2022-08-26T15:20:10.690Z,18.60047
2022-08-26T15:25:12.642Z,18.69488
2022-08-26T15:30:14.425Z,18.75777
2022-08-26T15:35:16.183Z,19.1141
2022-08-26T15:40:18.561Z,19.42598
2022-08-26T15:45:26.188Z,20.0866
2022-08-26T15:50:28.347Z,20.37667
2022-08-26T15:55:30.244Z,21.7
2022-08-26T16:00:32.097Z,20.81802
2022-08-26T16:05:33.912Z,20.81329
2022-08-26T16:10:35.937Z,21.27457
2022-08-26T16:15:37.837Z,22.02032
2022-08-26T16:20:39.628Z,22.3481
2022-08-26T16:25:52.086Z,23.00471
2022-08-26T16:30:53.816Z,22.92083
2022-08-26T16:35:55.676Z,23.0067
2022-08-26T16:40:57.740Z,23.72993
2022-08-26T16:45:59.578Z,23.67787
2022-08-26T16:51:01.556Z,23.63401
2022-08-26T16:56:03.705Z,23.74416
2022-08-26T17:01:05.580Z,23.85579
2022-08-26T17:06:07.457Z,24.08411
2022-08-26T17:11:09.413Z,24.48899
2022-08-26T17:16:11.300Z,24.87389
2022-08-26T17:21:13.098Z,25.24833
2022-08-26T17:26:15.042Z,25.47753
2022-08-26T17:31:16.898Z,25.50595
2022-08-26T17:36:18.824Z,24.70137
2022-08-26T17:41:21.019Z,25.08863
2022-08-26T17:46:22.793Z,24.53253
2022-08-26T17:51:24.684Z,24.41057
2022-08-26T17:56:26.475Z,24.65848
2022-08-26T18:01:28.299Z,24.23576
2022-08-26T18:06:30.014Z,24.73785
2022-08-26T18:11:32.271Z,25.24596
2022-08-26T18:16:34.083Z,24.95417
2022-08-26T18:21:35.938Z,24.31682
2022-08-26T18:26:37.812Z,24.40504
2022-08-26T18:31:39.591Z,24.53281
2022-08-26T18:36:41.367Z,24.58964
2022-08-26T18:41:43.348Z,24.69575
2022-08-26T18:46:44.789Z,24.42304
2022-08-26T18:51:46.233Z,24.68399
2022-08-26T18:56:47.928Z,25.08022
2022-08-26T19:01:49.502Z,27.27004
2022-08-26T19:06:52.326Z,29.61702
2022-08-26T19:11:54.183Z,29.57841
2022-08-26T19:16:55.727Z,29.25515
2022-08-26T19:21:57.957Z,30.65882
2022-08-26T19:26:59.599Z,31.30869
2022-08-26T19:32:01.287Z,31.61527
2022-08-26T19:37:02.944Z,31.5399
2022-08-26T19:42:04.772Z,31.19222
2022-08-26T19:47:06.448Z,31.67548
2022-08-26T19:52:07.939Z,31.82632
2022-08-26T19:57:09.706Z,31.2072
2022-08-26T20:02:13.384Z,31.09587
2022-08-26T20:07:18.777Z,31.07741
2022-08-26T20:12:21.217Z,31.69186
2022-08-26T20:17:22.662Z,31.69035
2022-08-26T20:22:24.427Z,31.57133
2022-08-26T20:27:26.287Z,32.00532
2022-08-26T20:32:39.703Z,32.53195
2022-08-26T20:37:41.668Z,32.80795
2022-08-26T20:42:43.656Z,33.79793
2022-08-26T20:47:45.089Z,36.83118
2022-08-26T20:52:46.779Z,37.29029
2022-08-26T20:57:48.611Z,38.38246
2022-08-26T21:02:50.199Z,37.5212
2022-08-26T21:07:52.085Z,37.86995
2022-08-26T21:12:54.784Z,37.14482
2022-08-26T21:17:56.668Z,38.37634
2022-08-26T21:22:58.386Z,38.72033
2022-08-26T21:28:00.165Z,38.93338
2022-08-26T21:33:02.054Z,39.00113
2022-08-26T21:38:03.829Z,38.68846
2022-08-26T21:43:05.915Z,38.62276
2022-08-26T21:48:07.563Z,39.61455
2022-08-26T21:53:09.560Z,38.25144
2022-08-26T21:58:11.451Z,38.85586
2022-08-26T22:03:13.347Z,39.04814
2022-08-26T22:08:15.110Z,38.77669
2022-08-26T22:13:17.076Z,38.44978
2022-08-26T22:18:18.808Z,38.63231
2022-08-26T22:23:20.593Z,38.85147
2022-08-26T22:28:22.344Z,39.42666
2022-08-26T22:33:24.220Z,39.46962
2022-08-26T22:38:25.997Z,39.27494
2022-08-26T22:43:28.219Z,38.50772
2022-08-26T22:48:29.984Z,39.34085
2022-08-26T22:53:32.743Z,37.82117
2022-08-26T22:58:37.890Z,39.56421
2022-08-26T23:03:40.121Z,39.35182
2022-08-26T23:08:41.954Z,39.66302
2022-08-26T23:13:44.064Z,39.49523
2022-08-26T23:18:45.669Z,39.7129
2022-08-26T23:23:47.131Z,40.89638
2022-08-26T23:28:48.936Z,40.88825
2022-08-26T23:33:50.415Z,40.80858
2022-08-26T23:38:52.932Z,41.30466
2022-08-26T23:43:55.343Z,41.24856
2022-08-26T23:48:57.087Z,40.34182
2022-08-26T23:53:58.545Z,42.44199
2022-08-26T23:59:00.217Z,41.01766
